createdAt,value
2022-09-14T00:01:55.749Z,0.73
2022-09-14T00:04:25.459Z,0.80
2022-09-14T00:06:54.892Z,0.73
2022-09-14T00:09:26.886Z,0.70
2022-09-14T00:11:56.331Z,0.47
2022-09-14T00:14:45.854Z,0.47
2022-09-14T00:17:15.289Z,0.60
2022-09-14T00:19:44.734Z,0.53
2022-09-14T00:22:14.179Z,0.60
2022-09-14T00:24:43.623Z,0.50
2022-09-14T00:27:13.503Z,0.40
2022-09-14T00:29:43.120Z,0.50
2022-09-14T00:32:12.741Z,0.50
2022-09-14T00:34:42.172Z,0.40
2022-09-14T00:37:12.851Z,0.50
2022-09-14T00:39:42.480Z,0.33
2022-09-14T00:42:16.596Z,0.50
2022-09-14T00:44:50.647Z,0.43
2022-09-14T00:47:20.724Z,0.50
2022-09-14T00:49:50.236Z,0.40
2022-09-14T00:52:36.375Z,0.30
2022-09-14T00:55:10.764Z,0.53
2022-09-14T00:57:50.952Z,0.47
2022-09-14T01:00:25.742Z,0.47
2022-09-14T01:02:55.329Z,0.50
2022-09-14T01:05:29.450Z,0.70
2022-09-14T01:08:18.201Z,0.50
2022-09-14T01:11:07.140Z,0.40
2022-09-14T01:14:02.439Z,0.50
2022-09-14T01:17:05.179Z,0.40
2022-09-14T01:20:00.173Z,0.40
2022-09-14T01:22:43.094Z,0.47
2022-09-14T01:25:39.896Z,0.30
2022-09-14T01:28:25.184Z,0.30
2022-09-14T01:30:59.652Z,0.40
2022-09-14T01:33:36.319Z,0.40
2022-09-14T01:36:10.356Z,0.20
2022-09-14T01:38:47.110Z,0.40
2022-09-14T01:41:21.151Z,0.50
2022-09-14T01:44:17.827Z,0.23
2022-09-14T01:46:51.869Z,0.23
2022-09-14T01:49:34.224Z,0.30
2022-09-14T01:52:17.602Z,0.33
2022-09-14T01:54:57.878Z,0.30
2022-09-14T01:57:46.068Z,0.27
2022-09-14T02:00:19.638Z,0.30
2022-09-14T02:02:59.256Z,0.30
2022-09-14T02:05:33.499Z,0.50
2022-09-14T02:08:03.448Z,0.47
2022-09-14T02:10:34.882Z,0.40
2022-09-14T02:13:05.097Z,0.40
2022-09-14T02:15:36.729Z,0.50
2022-09-14T02:18:06.963Z,0.50
2022-09-14T02:20:46.946Z,0.40
2022-09-14T02:23:17.005Z,0.50
2022-09-14T02:25:47.868Z,0.50
2022-09-14T02:28:17.537Z,0.50
2022-09-14T02:31:22.629Z,0.57
2022-09-14T02:34:05.306Z,0.50
2022-09-14T02:36:51.125Z,0.37
2022-09-14T02:39:57.090Z,0.50
2022-09-14T02:42:52.003Z,0.50
2022-09-14T02:45:28.741Z,0.40
2022-09-14T02:48:08.287Z,0.33
2022-09-14T02:50:53.076Z,0.30
2022-09-14T02:53:27.313Z,0.30
2022-09-14T02:56:04.052Z,0.30
2022-09-14T02:58:40.885Z,0.20
2022-09-14T03:01:17.753Z,0.30
2022-09-14T03:03:47.189Z,0.40
2022-09-14T03:06:16.900Z,0.30
2022-09-14T03:08:46.685Z,0.30
2022-09-14T03:11:16.372Z,0.30
2022-09-14T03:13:45.878Z,0.40
2022-09-14T03:16:18.132Z,0.20
2022-09-14T03:18:47.869Z,0.30
2022-09-14T03:21:19.563Z,0.57
2022-09-14T03:23:52.568Z,0.40
2022-09-14T03:26:24.624Z,0.20
2022-09-14T03:28:57.403Z,0.40
2022-09-14T03:31:28.051Z,0.40
2022-09-14T03:34:00.067Z,0.40
2022-09-14T03:36:32.193Z,0.27
2022-09-14T03:39:02.330Z,0.20
2022-09-14T03:41:31.832Z,0.20
2022-09-14T03:44:01.278Z,0.30
2022-09-14T03:46:30.815Z,0.37
2022-09-14T03:49:00.366Z,0.40
2022-09-14T03:51:29.807Z,0.30
2022-09-14T03:53:59.256Z,0.30
2022-09-14T03:56:28.720Z,0.40
2022-09-14T03:58:58.209Z,0.30
2022-09-14T04:01:27.687Z,0.43
2022-09-14T04:03:57.745Z,0.27
2022-09-14T04:06:27.257Z,0.50
2022-09-14T04:08:56.773Z,0.50
2022-09-14T04:11:28.190Z,0.23
2022-09-14T04:13:59.463Z,0.30
2022-09-14T04:16:30.691Z,0.30
2022-09-14T04:19:00.176Z,0.40
2022-09-14T04:21:29.683Z,0.30
2022-09-14T04:24:16.284Z,0.50
2022-09-14T04:26:33.314Z,0.57
2022-09-14T04:29:02.768Z,0.60
2022-09-14T04:31:33.873Z,0.50
2022-09-14T04:34:03.280Z,0.40
2022-09-14T04:36:33.166Z,0.40
2022-09-14T04:39:04.427Z,0.40
2022-09-14T04:41:34.608Z,0.50
2022-09-14T04:44:04.375Z,0.30
2022-09-14T04:46:36.263Z,0.50
2022-09-14T04:49:06.828Z,0.57
2022-09-14T04:51:38.152Z,0.50
2022-09-14T04:54:08.143Z,0.60
2022-09-14T04:56:38.442Z,0.30
2022-09-14T04:59:08.427Z,0.30
2022-09-14T05:01:42.109Z,0.27
2022-09-14T05:04:13.370Z,0.50
2022-09-14T05:06:44.814Z,0.50
2022-09-14T05:09:18.407Z,0.40
2022-09-14T05:11:49.927Z,0.50
2022-09-14T05:14:19.816Z,0.50
2022-09-14T05:16:49.250Z,0.60
2022-09-14T05:19:19.732Z,0.40
2022-09-14T05:21:49.349Z,0.57
2022-09-14T05:24:20.408Z,0.40
2022-09-14T05:26:51.418Z,0.40
2022-09-14T05:29:20.928Z,0.40
2022-09-14T05:31:50.430Z,0.40
2022-09-14T05:34:19.878Z,0.50
2022-09-14T05:36:50.438Z,0.50
2022-09-14T05:39:23.342Z,0.40
2022-09-14T05:41:52.793Z,0.47
2022-09-14T05:44:22.236Z,0.37
2022-09-14T05:46:51.800Z,0.40
2022-09-14T05:49:21.488Z,0.50
2022-09-14T05:51:50.916Z,0.30
2022-09-14T05:54:20.373Z,0.43
2022-09-14T05:56:49.801Z,0.57
2022-09-14T05:59:19.258Z,0.40
2022-09-14T06:01:48.780Z,0.60
2022-09-14T06:04:18.286Z,0.50
2022-09-14T06:07:07.739Z,0.77
2022-09-14T06:09:18.887Z,0.57
2022-09-14T06:11:48.323Z,0.43
2022-09-14T06:14:19.417Z,0.40
2022-09-14T06:16:49.234Z,0.40
2022-09-14T06:19:18.702Z,0.60
2022-09-14T06:21:48.138Z,0.60
2022-09-14T06:24:17.592Z,0.43
2022-09-14T06:26:47.027Z,0.50
2022-09-14T06:29:16.477Z,0.70
2022-09-14T06:31:45.913Z,0.50
2022-09-14T06:34:15.365Z,0.60
2022-09-14T06:36:45.472Z,0.60
2022-09-14T06:39:14.928Z,0.90
2022-09-14T06:41:44.434Z,0.50
2022-09-14T06:44:14.156Z,0.80
2022-09-14T06:46:47.373Z,0.80
2022-09-14T06:49:21.013Z,0.60
2022-09-14T06:51:51.556Z,0.53
2022-09-14T06:54:21.078Z,0.63
2022-09-14T06:56:50.520Z,0.60
2022-09-14T06:59:20.550Z,0.43
2022-09-14T07:01:50.061Z,0.47
2022-09-14T07:04:19.957Z,0.67
2022-09-14T07:06:51.096Z,0.50
2022-09-14T07:09:21.658Z,0.40
2022-09-14T07:11:51.090Z,0.50
2022-09-14T07:14:20.542Z,0.50
2022-09-14T07:16:49.983Z,0.40
2022-09-14T07:19:19.512Z,0.50
2022-09-14T07:21:49.920Z,0.50
2022-09-14T07:24:19.370Z,0.67
2022-09-14T07:26:49.073Z,0.40
2022-09-14T07:29:21.864Z,0.50
2022-09-14T07:31:54.299Z,0.70
2022-09-14T07:34:25.007Z,0.53
2022-09-14T07:36:54.448Z,0.60
2022-09-14T07:39:23.901Z,0.50
2022-09-14T07:41:53.707Z,0.60
2022-09-14T07:44:23.158Z,0.87
2022-09-14T07:46:52.596Z,0.60
2022-09-14T07:49:22.424Z,0.30
2022-09-14T07:51:53.527Z,0.57
2022-09-14T07:54:22.979Z,0.40
2022-09-14T07:56:52.481Z,0.67
2022-09-14T07:59:35.578Z,0.53
2022-09-14T08:01:53.331Z,0.63
2022-09-14T08:04:23.355Z,0.63
2022-09-14T08:06:52.799Z,0.50
2022-09-14T08:09:22.237Z,0.70
2022-09-14T08:11:51.698Z,0.70
2022-09-14T08:14:21.865Z,0.57
2022-09-14T08:16:51.384Z,0.40
2022-09-14T08:19:21.223Z,0.57
2022-09-14T08:21:51.256Z,0.70
2022-09-14T08:24:22.843Z,0.53
2022-09-14T08:26:52.347Z,0.60
2022-09-14T08:29:21.802Z,0.63
2022-09-14T08:31:52.207Z,0.50
2022-09-14T08:34:22.680Z,0.43
2022-09-14T08:36:52.189Z,0.50
2022-09-14T08:39:21.639Z,0.30
2022-09-14T08:41:58.831Z,0.40
2022-09-14T08:44:47.699Z,0.50
2022-09-14T08:47:21.744Z,0.70
2022-09-14T08:50:18.336Z,0.93
2022-09-14T08:52:53.787Z,0.50
2022-09-14T08:55:45.085Z,0.70
2022-09-14T08:58:38.859Z,0.70
2022-09-14T09:01:12.613Z,0.70
2022-09-14T09:04:07.413Z,0.60
2022-09-14T09:07:13.054Z,0.57
2022-09-14T09:09:52.379Z,0.57
2022-09-14T09:12:26.414Z,0.80
2022-09-14T09:15:00.814Z,0.20
2022-09-14T09:17:40.883Z,0.57
2022-09-14T09:20:32.966Z,0.80
2022-09-14T09:23:21.639Z,0.60
2022-09-14T09:26:28.792Z,0.57
2022-09-14T09:29:06.086Z,0.33
2022-09-14T09:31:40.102Z,0.40
2022-09-14T09:34:15.905Z,0.50
2022-09-14T09:36:51.554Z,0.37
2022-09-14T09:39:21.145Z,0.67
2022-09-14T09:42:09.589Z,0.30
2022-09-14T09:45:05.854Z,0.70
2022-09-14T09:47:41.847Z,0.40
2022-09-14T09:50:21.926Z,0.50
2022-09-14T09:53:06.550Z,0.70
2022-09-14T09:55:39.922Z,0.60
2022-09-14T09:58:39.617Z,0.53
2022-09-14T10:01:23.295Z,0.70
2022-09-14T10:04:06.795Z,0.57
2022-09-14T10:06:46.373Z,0.50
2022-09-14T10:09:19.641Z,0.50
2022-09-14T10:11:59.140Z,0.50
2022-09-14T10:14:40.471Z,0.80
2022-09-14T10:17:22.885Z,0.53
2022-09-14T10:19:58.242Z,0.77
2022-09-14T10:22:36.264Z,0.40
2022-09-14T10:25:19.730Z,0.30
2022-09-14T10:27:59.362Z,0.50
2022-09-14T10:30:42.161Z,0.63
2022-09-14T10:33:17.233Z,0.53
2022-09-14T10:35:59.849Z,0.50
2022-09-14T10:38:51.785Z,0.63
2022-09-14T10:41:45.489Z,0.33
2022-09-14T10:44:40.815Z,0.53
2022-09-14T10:47:15.297Z,0.70
2022-09-14T10:50:06.985Z,0.50
2022-09-14T10:52:58.820Z,0.67
2022-09-14T10:55:34.444Z,0.40
2022-09-14T10:58:27.490Z,0.80
2022-09-14T11:01:07.341Z,0.57
2022-09-14T11:03:56.256Z,0.50
2022-09-14T11:06:33.266Z,0.67
2022-09-14T11:09:19.438Z,0.50
2022-09-14T11:12:01.946Z,0.67
2022-09-14T11:14:53.470Z,0.70
2022-09-14T11:17:46.997Z,0.53
2022-09-14T11:20:37.506Z,0.50
2022-09-14T11:23:28.539Z,0.57
2022-09-14T11:26:14.062Z,0.60
2022-09-14T11:29:05.533Z,0.40
2022-09-14T11:31:43.914Z,0.50
2022-09-14T11:34:23.454Z,0.33
2022-09-14T11:37:03.228Z,0.40
2022-09-14T11:39:37.308Z,0.67
2022-09-14T11:42:14.162Z,0.57
2022-09-14T11:44:47.004Z,0.60
2022-09-14T11:47:19.782Z,0.50
2022-09-14T11:50:05.753Z,0.70
2022-09-14T11:52:36.072Z,0.50
2022-09-14T11:55:12.786Z,0.60
2022-09-14T11:57:45.618Z,0.60
2022-09-14T12:00:29.939Z,0.50
2022-09-14T12:03:18.829Z,0.53
2022-09-14T12:05:51.031Z,0.67
2022-09-14T12:08:33.913Z,0.60
2022-09-14T12:11:08.015Z,0.40
2022-09-14T12:13:38.893Z,0.60
2022-09-14T12:16:10.746Z,0.63
2022-09-14T12:18:44.484Z,0.50
2022-09-14T12:21:29.395Z,0.47
2022-09-14T12:24:01.151Z,0.60
2022-09-14T12:26:36.396Z,0.40
2022-09-14T12:29:10.477Z,0.50
2022-09-14T12:31:53.762Z,0.73
2022-09-14T12:34:30.472Z,0.53
2022-09-14T12:37:08.652Z,0.40
2022-09-14T12:39:37.958Z,0.37
2022-09-14T12:42:29.989Z,0.60
2022-09-14T12:45:01.142Z,0.40
2022-09-14T12:47:35.729Z,0.30
2022-09-14T12:50:22.212Z,0.57
2022-09-14T12:53:11.081Z,0.47
2022-09-14T12:55:54.080Z,0.70
2022-09-14T12:58:47.893Z,0.40
2022-09-14T13:01:30.180Z,0.50
2022-09-14T13:04:00.566Z,0.90
2022-09-14T13:06:37.035Z,0.60
2022-09-14T13:09:09.736Z,0.43
2022-09-14T13:11:43.030Z,0.30
2022-09-14T13:14:20.851Z,0.47
2022-09-14T13:16:52.682Z,0.50
2022-09-14T13:19:32.005Z,0.47
2022-09-14T13:22:03.791Z,0.50
2022-09-14T13:24:40.239Z,0.60
2022-09-14T13:27:23.408Z,0.83
2022-09-14T13:30:12.710Z,0.50
2022-09-14T13:32:47.080Z,0.50
2022-09-14T13:35:39.795Z,0.83
2022-09-14T13:38:16.743Z,0.70
2022-09-14T13:40:49.660Z,0.40
2022-09-14T13:43:21.851Z,0.60
2022-09-14T13:45:52.746Z,0.43
2022-09-14T13:48:23.326Z,0.57
2022-09-14T13:50:54.285Z,0.57
2022-09-14T13:53:48.949Z,0.67
2022-09-14T13:56:34.596Z,0.60
2022-09-14T13:59:33.490Z,0.60
2022-09-14T14:02:04.320Z,0.47
2022-09-14T14:04:40.376Z,0.50
2022-09-14T14:07:20.579Z,0.33
2022-09-14T14:09:59.766Z,0.40
2022-09-14T14:12:42.390Z,0.60
2022-09-14T14:15:16.478Z,0.40
2022-09-14T14:17:46.352Z,0.70
2022-09-14T14:20:38.179Z,0.50
2022-09-14T14:23:21.127Z,0.47
2022-09-14T14:25:57.842Z,0.60
2022-09-14T14:28:31.991Z,0.47
2022-09-14T14:31:08.497Z,0.40
2022-09-14T14:33:36.974Z,0.40
2022-09-14T14:36:08.119Z,0.50
2022-09-14T14:38:37.902Z,0.40
2022-09-14T14:41:08.648Z,0.30
2022-09-14T14:43:38.447Z,0.40
2022-09-14T14:46:09.371Z,0.30
2022-09-14T14:48:38.965Z,0.60
2022-09-14T14:51:16.730Z,0.50
2022-09-14T14:53:46.180Z,0.43
2022-09-14T14:56:15.690Z,0.50
2022-09-14T14:58:48.002Z,0.30
2022-09-14T15:01:17.544Z,0.40
2022-09-14T15:03:47.572Z,0.50
2022-09-14T15:06:23.064Z,0.40
2022-09-14T15:08:58.861Z,0.40
2022-09-14T15:11:28.384Z,0.60
2022-09-14T15:13:57.860Z,0.43
2022-09-14T15:16:27.441Z,0.50
2022-09-14T15:18:57.029Z,0.50
2022-09-14T15:21:26.464Z,0.63
2022-09-14T15:23:55.955Z,0.60
2022-09-14T15:26:26.301Z,0.60
2022-09-14T15:28:56.017Z,0.50
2022-09-14T15:31:25.780Z,0.50
2022-09-14T15:33:55.503Z,0.50
2022-09-14T15:36:48.650Z,0.60
2022-09-14T15:39:20.247Z,0.53
2022-09-14T15:41:50.029Z,0.47
2022-09-14T15:44:19.945Z,0.60
2022-09-14T15:46:50.593Z,0.60
2022-09-14T15:49:26.139Z,0.50
2022-09-14T15:51:58.084Z,0.40
2022-09-14T15:54:34.034Z,0.50
2022-09-14T15:57:04.209Z,0.60
2022-09-14T15:59:34.113Z,0.80
2022-09-14T16:02:04.145Z,0.40
2022-09-14T16:04:38.964Z,0.50
2022-09-14T16:07:12.431Z,0.40
2022-09-14T16:09:43.576Z,0.40
2022-09-14T16:12:14.529Z,0.30
2022-09-14T16:14:43.994Z,0.30
2022-09-14T16:17:13.526Z,0.50
2022-09-14T16:19:42.982Z,0.37
2022-09-14T16:22:12.576Z,0.40
2022-09-14T16:24:42.136Z,0.40
2022-09-14T16:27:11.592Z,0.57
2022-09-14T16:29:41.113Z,0.50
2022-09-14T16:32:10.546Z,0.50
2022-09-14T16:34:40.011Z,0.40
2022-09-14T16:37:09.444Z,0.60
2022-09-14T16:39:38.891Z,0.50
2022-09-14T16:42:08.633Z,0.40
2022-09-14T16:44:38.178Z,0.30
2022-09-14T16:47:07.818Z,0.60
2022-09-14T16:49:38.924Z,0.60
2022-09-14T16:52:08.497Z,0.50
2022-09-14T16:54:37.954Z,0.30
2022-09-14T16:57:07.565Z,0.30
2022-09-14T16:59:37.013Z,0.50
2022-09-14T17:02:06.999Z,0.30
2022-09-14T17:04:36.438Z,0.50
2022-09-14T17:07:06.412Z,0.50
2022-09-14T17:09:35.860Z,0.40
2022-09-14T17:12:05.534Z,0.50
2022-09-14T17:14:36.021Z,0.70
2022-09-14T17:17:05.460Z,0.70
2022-09-14T17:19:38.506Z,0.50
2022-09-14T17:22:07.265Z,0.50
2022-09-14T17:24:36.858Z,0.50
2022-09-14T17:27:06.295Z,0.37
2022-09-14T17:29:37.379Z,0.50
2022-09-14T17:32:10.171Z,0.70
2022-09-14T17:34:38.232Z,0.70
2022-09-14T17:37:07.673Z,0.80
2022-09-14T17:39:37.124Z,0.70
2022-09-14T17:42:06.632Z,0.80
2022-09-14T17:44:36.751Z,0.80
2022-09-14T17:47:06.417Z,1.07
2022-09-14T17:49:37.063Z,0.70
2022-09-14T17:52:06.495Z,0.90
2022-09-14T17:54:36.036Z,1.00
2022-09-14T17:57:05.607Z,0.60
2022-09-14T17:59:35.053Z,0.70
2022-09-14T18:02:04.494Z,0.80
2022-09-14T18:04:33.949Z,0.63
2022-09-14T18:07:05.948Z,0.80
2022-09-14T18:09:35.847Z,1.00
2022-09-14T18:12:05.799Z,0.90
2022-09-14T18:14:35.518Z,1.00
2022-09-14T18:17:05.595Z,1.00
2022-09-14T18:19:35.177Z,1.20
2022-09-14T18:22:05.201Z,1.00
2022-09-14T18:24:34.701Z,1.10
2022-09-14T18:27:05.227Z,0.90
2022-09-14T18:29:34.673Z,0.87
2022-09-14T18:32:04.350Z,0.80
2022-09-14T18:34:33.799Z,1.00
2022-09-14T18:37:03.305Z,1.17
2022-09-14T18:39:32.823Z,1.00
2022-09-14T18:42:02.270Z,0.97
2022-09-14T18:44:31.728Z,0.73
2022-09-14T18:47:01.204Z,0.53
2022-09-14T18:49:30.669Z,0.80
2022-09-14T18:52:00.113Z,0.80
2022-09-14T18:54:29.576Z,0.80
2022-09-14T18:56:59.928Z,0.80
2022-09-14T18:59:29.549Z,0.70
2022-09-14T19:01:59.076Z,0.50
2022-09-14T19:04:28.854Z,0.60
2022-09-14T19:06:58.851Z,0.87
2022-09-14T19:09:28.299Z,0.40
2022-09-14T19:11:57.857Z,0.70
2022-09-14T19:14:27.542Z,0.90
2022-09-14T19:16:59.155Z,0.67
2022-09-14T19:19:31.070Z,0.70
2022-09-14T19:22:00.117Z,0.70
2022-09-14T19:24:31.444Z,0.70
2022-09-14T19:27:01.424Z,0.93
2022-09-14T19:29:32.959Z,0.80
2022-09-14T19:32:02.642Z,0.70
2022-09-14T19:34:32.235Z,0.67
2022-09-14T19:37:01.728Z,0.77
2022-09-14T19:39:31.194Z,0.80
2022-09-14T19:42:00.630Z,0.70
2022-09-14T19:44:30.110Z,0.60
2022-09-14T19:46:59.556Z,0.80
2022-09-14T19:49:29.390Z,0.70
2022-09-14T19:51:58.989Z,0.90
2022-09-14T19:54:28.911Z,0.90
2022-09-14T19:56:58.348Z,0.80
2022-09-14T19:59:27.947Z,0.80
2022-09-14T20:01:57.539Z,1.47
2022-09-14T20:04:27.130Z,1.00
2022-09-14T20:06:56.617Z,1.03
2022-09-14T20:09:26.544Z,0.80
2022-09-14T20:11:56.322Z,1.17
2022-09-14T20:14:27.078Z,0.73
2022-09-14T20:16:59.840Z,0.73
2022-09-14T20:19:32.562Z,0.73
2022-09-14T20:22:02.000Z,0.90
2022-09-14T20:24:32.548Z,0.70
2022-09-14T20:27:03.812Z,0.80
2022-09-14T20:29:35.446Z,0.97
2022-09-14T20:32:06.687Z,0.87
2022-09-14T20:34:36.142Z,0.90
2022-09-14T20:37:05.642Z,0.80
2022-09-14T20:39:36.744Z,1.40
2022-09-14T20:42:06.933Z,0.90
2022-09-14T20:44:36.459Z,0.90
2022-09-14T20:47:05.967Z,1.10
2022-09-14T20:49:35.415Z,0.90
2022-09-14T20:52:04.915Z,0.87
2022-09-14T20:54:34.374Z,1.07
2022-09-14T20:57:04.720Z,1.30
2022-09-14T20:59:34.336Z,1.30
2022-09-14T21:02:05.631Z,1.20
2022-09-14T21:04:36.527Z,1.40
2022-09-14T21:07:06.030Z,0.70
2022-09-14T21:09:36.951Z,1.10
2022-09-14T21:12:06.573Z,1.03
2022-09-14T21:14:36.011Z,1.10
2022-09-14T21:17:05.520Z,0.90
2022-09-14T21:19:34.973Z,1.10
2022-09-14T21:22:04.410Z,1.10
2022-09-14T21:24:35.196Z,1.20
2022-09-14T21:27:04.700Z,0.97
2022-09-14T21:29:34.388Z,1.27
2022-09-14T21:32:08.729Z,1.10
2022-09-14T21:34:35.210Z,1.27
2022-09-14T21:37:05.113Z,1.17
2022-09-14T21:39:34.564Z,1.40
2022-09-14T21:42:04.003Z,1.33
2022-09-14T21:44:37.333Z,1.40
2022-09-14T21:47:07.279Z,1.13
2022-09-14T21:49:36.720Z,1.13
2022-09-14T21:52:06.229Z,1.40
2022-09-14T21:54:35.674Z,1.00
2022-09-14T21:57:05.251Z,1.10
2022-09-14T21:59:34.703Z,1.27
2022-09-14T22:02:04.307Z,1.00
2022-09-14T22:04:33.823Z,1.20
2022-09-14T22:07:03.263Z,1.00
2022-09-14T22:09:32.719Z,1.20
2022-09-14T22:12:02.159Z,1.20
2022-09-14T22:14:32.041Z,1.07
2022-09-14T22:17:01.551Z,1.13
2022-09-14T22:19:33.411Z,1.20
2022-09-14T22:22:03.756Z,1.30
2022-09-14T22:24:38.785Z,1.20
2022-09-14T22:27:10.837Z,0.87
2022-09-14T22:29:41.784Z,1.10
2022-09-14T22:34:46.517Z,0.93
2022-09-14T22:37:14.277Z,0.90
2022-09-14T22:39:43.867Z,1.20
2022-09-14T22:42:13.321Z,0.90
2022-09-14T22:44:42.795Z,1.10
2022-09-14T22:47:12.595Z,0.80
2022-09-14T22:49:42.069Z,0.80
2022-09-14T22:52:11.795Z,0.80
2022-09-14T22:54:41.249Z,1.10
2022-09-14T22:57:10.694Z,0.80
2022-09-14T22:59:40.161Z,0.87
2022-09-14T23:02:09.708Z,0.80
2022-09-14T23:04:39.143Z,0.90
2022-09-14T23:07:08.623Z,0.73
2022-09-14T23:09:39.282Z,0.40
2022-09-14T23:12:08.725Z,0.70
2022-09-14T23:14:38.199Z,0.90
2022-09-14T23:17:07.740Z,0.80
2022-09-14T23:19:37.592Z,0.80
2022-09-14T23:22:07.279Z,0.90
2022-09-14T23:24:36.737Z,0.70
2022-09-14T23:27:06.333Z,0.90
2022-09-14T23:29:35.782Z,1.00
2022-09-14T23:32:05.664Z,1.00
2022-09-14T23:34:35.557Z,1.03
2022-09-14T23:37:05.009Z,0.90
2022-09-14T23:39:34.447Z,1.20
2022-09-14T23:42:04.232Z,1.20
2022-09-14T23:44:33.755Z,1.20
2022-09-14T23:47:03.556Z,1.30
2022-09-14T23:49:33.152Z,1.60
2022-09-14T23:52:02.762Z,1.87
2022-09-14T23:54:32.220Z,1.40
2022-09-14T23:57:01.665Z,1.20
2022-09-14T23:59:31.134Z,1.33
